sensor_id;sensor_type;location;lat;lon;timestamp;P1;durP1;ratioP1;P2;durP2;ratioP2
22250;SDS011;59348;52.158;5.588;2023-04-03T00:02:15;5.63;;;1.55;;
22250;SDS011;59348;52.158;5.588;2023-04-03T00:04:42;2.85;;;1.33;;
22250;SDS011;59348;52.158;5.588;2023-04-03T00:07:11;2.15;;;1.20;;
22250;SDS011;59348;52.158;5.588;2023-04-03T00:09:39;2.70;;;1.33;;
22250;SDS011;59348;52.158;5.588;2023-04-03T00:12:07;3.55;;;1.38;;
22250;SDS011;59348;52.158;5.588;2023-04-03T00:14:36;2.17;;;1.40;;
22250;SDS011;59348;52.158;5.588;2023-04-03T00:17:03;2.60;;;1.40;;
22250;SDS011;59348;52.158;5.588;2023-04-03T00:19:30;3.97;;;1.60;;
22250;SDS011;59348;52.158;5.588;2023-04-03T00:21:57;2.38;;;1.30;;
22250;SDS011;59348;52.158;5.588;2023-04-03T00:24:26;3.63;;;1.40;;
22250;SDS011;59348;52.158;5.588;2023-04-03T00:26:53;2.28;;;1.25;;
22250;SDS011;59348;52.158;5.588;2023-04-03T00:29:21;2.67;;;1.40;;
22250;SDS011;59348;52.158;5.588;2023-04-03T00:31:48;2.83;;;1.33;;
22250;SDS011;59348;52.158;5.588;2023-04-03T00:34:15;4.82;;;1.38;;
22250;SDS011;59348;52.158;5.588;2023-04-03T00:36:43;2.95;;;1.30;;
22250;SDS011;59348;52.158;5.588;2023-04-03T00:39:10;2.92;;;1.65;;
22250;SDS011;59348;52.158;5.588;2023-04-03T00:41:39;3.53;;;1.33;;
22250;SDS011;59348;52.158;5.588;2023-04-03T00:46:48;2.63;;;1.42;;
22250;SDS011;59348;52.158;5.588;2023-04-03T00:49:15;4.15;;;1.55;;
22250;SDS011;59348;52.158;5.588;2023-04-03T00:51:43;3.67;;;1.55;;
22250;SDS011;59348;52.158;5.588;2023-04-03T00:54:10;3.45;;;1.58;;
22250;SDS011;59348;52.158;5.588;2023-04-03T00:56:39;4.70;;;1.45;;
22250;SDS011;59348;52.158;5.588;2023-04-03T00:59:08;3.08;;;1.40;;
22250;SDS011;59348;52.158;5.588;2023-04-03T01:01:37;4.05;;;1.42;;
22250;SDS011;59348;52.158;5.588;2023-04-03T01:04:05;3.72;;;1.52;;
22250;SDS011;59348;52.158;5.588;2023-04-03T01:06:33;4.20;;;1.67;;
22250;SDS011;59348;52.158;5.588;2023-04-03T01:09:01;3.05;;;1.50;;
22250;SDS011;59348;52.158;5.588;2023-04-03T01:11:29;3.72;;;1.60;;
22250;SDS011;59348;52.158;5.588;2023-04-03T01:13:57;5.95;;;1.60;;
22250;SDS011;59348;52.158;5.588;2023-04-03T01:16:25;3.75;;;1.52;;
22250;SDS011;59348;52.158;5.588;2023-04-03T01:18:55;2.97;;;1.40;;
22250;SDS011;59348;52.158;5.588;2023-04-03T01:21:28;2.75;;;1.50;;
22250;SDS011;59348;52.158;5.588;2023-04-03T01:24:05;3.40;;;1.55;;
22250;SDS011;59348;52.158;5.588;2023-04-03T01:26:35;5.28;;;1.50;;
22250;SDS011;59348;52.158;5.588;2023-04-03T01:29:04;4.25;;;1.50;;
22250;SDS011;59348;52.158;5.588;2023-04-03T01:31:41;3.58;;;1.55;;
22250;SDS011;59348;52.158;5.588;2023-04-03T01:34:08;4.45;;;1.55;;
22250;SDS011;59348;52.158;5.588;2023-04-03T01:36:35;3.25;;;1.48;;
22250;SDS011;59348;52.158;5.588;2023-04-03T01:39:03;3.05;;;1.17;;
22250;SDS011;59348;52.158;5.588;2023-04-03T01:41:30;3.67;;;1.58;;
22250;SDS011;59348;52.158;5.588;2023-04-03T01:43:57;3.08;;;1.60;;
22250;SDS011;59348;52.158;5.588;2023-04-03T01:46:25;4.63;;;1.63;;
22250;SDS011;59348;52.158;5.588;2023-04-03T01:48:53;4.45;;;1.90;;
22250;SDS011;59348;52.158;5.588;2023-04-03T01:51:20;6.13;;;2.10;;
22250;SDS011;59348;52.158;5.588;2023-04-03T01:53:48;3.88;;;1.90;;
22250;SDS011;59348;52.158;5.588;2023-04-03T01:56:16;3.08;;;1.80;;
22250;SDS011;59348;52.158;5.588;2023-04-03T01:58:43;2.90;;;1.80;;
22250;SDS011;59348;52.158;5.588;2023-04-03T02:01:11;3.90;;;1.80;;
22250;SDS011;59348;52.158;5.588;2023-04-03T02:03:38;3.05;;;1.70;;
22250;SDS011;59348;52.158;5.588;2023-04-03T02:06:07;3.80;;;1.90;;
22250;SDS011;59348;52.158;5.588;2023-04-03T02:08:34;3.17;;;1.60;;
22250;SDS011;59348;52.158;5.588;2023-04-03T02:11:01;2.80;;;1.77;;
22250;SDS011;59348;52.158;5.588;2023-04-03T02:13:29;4.05;;;1.77;;
22250;SDS011;59348;52.158;5.588;2023-04-03T02:15:56;5.03;;;1.63;;
22250;SDS011;59348;52.158;5.588;2023-04-03T02:18:24;6.35;;;1.60;;
22250;SDS011;59348;52.158;5.588;2023-04-03T02:20:51;4.85;;;1.60;;
22250;SDS011;59348;52.158;5.588;2023-04-03T02:23:20;4.25;;;1.80;;
22250;SDS011;59348;52.158;5.588;2023-04-03T02:25:47;2.75;;;1.52;;
22250;SDS011;59348;52.158;5.588;2023-04-03T02:28:15;3.67;;;1.67;;
22250;SDS011;59348;52.158;5.588;2023-04-03T02:30:42;2.72;;;1.60;;
22250;SDS011;59348;52.158;5.588;2023-04-03T02:33:09;3.45;;;1.58;;
22250;SDS011;59348;52.158;5.588;2023-04-03T02:35:36;3.60;;;1.70;;
22250;SDS011;59348;52.158;5.588;2023-04-03T02:38:05;6.65;;;2.05;;
22250;SDS011;59348;52.158;5.588;2023-04-03T02:40:34;4.68;;;1.70;;
22250;SDS011;59348;52.158;5.588;2023-04-03T02:43:01;5.93;;;1.70;;
22250;SDS011;59348;52.158;5.588;2023-04-03T02:45:28;6.05;;;2.03;;
22250;SDS011;59348;52.158;5.588;2023-04-03T02:47:56;2.65;;;1.45;;
22250;SDS011;59348;52.158;5.588;2023-04-03T02:50:23;6.22;;;1.80;;
22250;SDS011;59348;52.158;5.588;2023-04-03T02:52:50;4.78;;;1.80;;
22250;SDS011;59348;52.158;5.588;2023-04-03T02:55:17;8.05;;;1.90;;
22250;SDS011;59348;52.158;5.588;2023-04-03T02:57:46;4.50;;;1.85;;
22250;SDS011;59348;52.158;5.588;2023-04-03T03:00:13;4.40;;;1.90;;
22250;SDS011;59348;52.158;5.588;2023-04-03T03:02:41;3.65;;;1.90;;
22250;SDS011;59348;52.158;5.588;2023-04-03T03:05:08;3.25;;;1.90;;
22250;SDS011;59348;52.158;5.588;2023-04-03T03:07:35;4.78;;;1.77;;
22250;SDS011;59348;52.158;5.588;2023-04-03T03:10:03;4.70;;;1.83;;
22250;SDS011;59348;52.158;5.588;2023-04-03T03:12:30;8.02;;;2.00;;
22250;SDS011;59348;52.158;5.588;2023-04-03T03:14:59;3.92;;;1.77;;
22250;SDS011;59348;52.158;5.588;2023-04-03T03:17:26;4.45;;;1.63;;
22250;SDS011;59348;52.158;5.588;2023-04-03T03:19:53;4.05;;;2.00;;
22250;SDS011;59348;52.158;5.588;2023-04-03T03:22:21;3.30;;;1.70;;
22250;SDS011;59348;52.158;5.588;2023-04-03T03:24:48;4.35;;;1.63;;
22250;SDS011;59348;52.158;5.588;2023-04-03T03:27:15;3.38;;;1.70;;
22250;SDS011;59348;52.158;5.588;2023-04-03T03:29:42;5.35;;;2.00;;
22250;SDS011;59348;52.158;5.588;2023-04-03T03:32:11;5.68;;;1.70;;
22250;SDS011;59348;52.158;5.588;2023-04-03T03:34:38;2.85;;;1.70;;
22250;SDS011;59348;52.158;5.588;2023-04-03T03:37:05;6.07;;;1.75;;
22250;SDS011;59348;52.158;5.588;2023-04-03T03:39:33;3.70;;;2.10;;
22250;SDS011;59348;52.158;5.588;2023-04-03T03:42:00;5.32;;;1.70;;
22250;SDS011;59348;52.158;5.588;2023-04-03T03:44:27;4.00;;;1.85;;
22250;SDS011;59348;52.158;5.588;2023-04-03T03:46:55;4.15;;;2.00;;
22250;SDS011;59348;52.158;5.588;2023-04-03T03:49:23;5.60;;;1.85;;
22250;SDS011;59348;52.158;5.588;2023-04-03T03:51:51;5.03;;;2.08;;
22250;SDS011;59348;52.158;5.588;2023-04-03T03:54:18;4.63;;;2.08;;
22250;SDS011;59348;52.158;5.588;2023-04-03T03:56:45;5.35;;;2.30;;
22250;SDS011;59348;52.158;5.588;2023-04-03T03:59:13;4.57;;;2.13;;
22250;SDS011;59348;52.158;5.588;2023-04-03T04:01:40;5.75;;;2.05;;
22250;SDS011;59348;52.158;5.588;2023-04-03T04:04:07;4.88;;;2.08;;
22250;SDS011;59348;52.158;5.588;2023-04-03T04:06:36;6.95;;;2.20;;
22250;SDS011;59348;52.158;5.588;2023-04-03T04:09:03;4.95;;;1.98;;
22250;SDS011;59348;52.158;5.588;2023-04-03T04:11:30;5.85;;;2.17;;
22250;SDS011;59348;52.158;5.588;2023-04-03T04:13:58;8.68;;;2.50;;
22250;SDS011;59348;52.158;5.588;2023-04-03T04:16:25;5.93;;;1.95;;
22250;SDS011;59348;52.158;5.588;2023-04-03T04:18:53;5.38;;;1.90;;
22250;SDS011;59348;52.158;5.588;2023-04-03T04:21:20;5.60;;;2.13;;
22250;SDS011;59348;52.158;5.588;2023-04-03T04:23:48;6.10;;;2.20;;
22250;SDS011;59348;52.158;5.588;2023-04-03T04:26:16;4.72;;;1.90;;
22250;SDS011;59348;52.158;5.588;2023-04-03T04:28:43;6.80;;;1.88;;
22250;SDS011;59348;52.158;5.588;2023-04-03T04:31:10;6.55;;;2.00;;
22250;SDS011;59348;52.158;5.588;2023-04-03T04:33:37;7.13;;;2.25;;
22250;SDS011;59348;52.158;5.588;2023-04-03T04:36:05;4.30;;;1.90;;
22250;SDS011;59348;52.158;5.588;2023-04-03T04:38:32;8.15;;;2.17;;
22250;SDS011;59348;52.158;5.588;2023-04-03T04:41:01;5.47;;;2.15;;
22250;SDS011;59348;52.158;5.588;2023-04-03T04:43:29;4.80;;;2.22;;
22250;SDS011;59348;52.158;5.588;2023-04-03T04:46:00;7.35;;;2.40;;
22250;SDS011;59348;52.158;5.588;2023-04-03T04:48:27;6.88;;;2.40;;
22250;SDS011;59348;52.158;5.588;2023-04-03T04:50:55;5.38;;;2.22;;
22250;SDS011;59348;52.158;5.588;2023-04-03T04:53:22;4.72;;;2.58;;
22250;SDS011;59348;52.158;5.588;2023-04-03T04:55:49;8.43;;;2.53;;
22250;SDS011;59348;52.158;5.588;2023-04-03T04:58:18;5.57;;;1.80;;
22250;SDS011;59348;52.158;5.588;2023-04-03T05:00:46;6.40;;;2.10;;
22250;SDS011;59348;52.158;5.588;2023-04-03T05:03:13;8.02;;;2.00;;
22250;SDS011;59348;52.158;5.588;2023-04-03T05:05:41;5.13;;;1.92;;
22250;SDS011;59348;52.158;5.588;2023-04-03T05:08:08;4.85;;;1.95;;
22250;SDS011;59348;52.158;5.588;2023-04-03T05:10:35;4.50;;;1.83;;
22250;SDS011;59348;52.158;5.588;2023-04-03T05:13:02;5.07;;;2.03;;
22250;SDS011;59348;52.158;5.588;2023-04-03T05:15:31;5.55;;;1.92;;
22250;SDS011;59348;52.158;5.588;2023-04-03T05:17:59;5.20;;;1.98;;
22250;SDS011;59348;52.158;5.588;2023-04-03T05:20:26;6.50;;;2.20;;
22250;SDS011;59348;52.158;5.588;2023-04-03T05:22:53;7.25;;;2.33;;
22250;SDS011;59348;52.158;5.588;2023-04-03T05:25:21;6.35;;;2.00;;
22250;SDS011;59348;52.158;5.588;2023-04-03T05:27:49;7.90;;;2.28;;
22250;SDS011;59348;52.158;5.588;2023-04-03T05:30:17;8.50;;;2.28;;
22250;SDS011;59348;52.158;5.588;2023-04-03T05:32:45;7.25;;;2.25;;
22250;SDS011;59348;52.158;5.588;2023-04-03T05:35:13;9.43;;;2.30;;
22250;SDS011;59348;52.158;5.588;2023-04-03T05:37:40;5.88;;;2.08;;
22250;SDS011;59348;52.158;5.588;2023-04-03T05:40:08;5.90;;;2.10;;
22250;SDS011;59348;52.158;5.588;2023-04-03T05:42:35;3.85;;;2.20;;
22250;SDS011;59348;52.158;5.588;2023-04-03T05:45:03;6.95;;;2.22;;
22250;SDS011;59348;52.158;5.588;2023-04-03T05:47:30;4.80;;;2.17;;
22250;SDS011;59348;52.158;5.588;2023-04-03T05:49:59;4.43;;;2.10;;
22250;SDS011;59348;52.158;5.588;2023-04-03T05:52:27;5.55;;;2.03;;
22250;SDS011;59348;52.158;5.588;2023-04-03T05:54:55;5.72;;;2.20;;
22250;SDS011;59348;52.158;5.588;2023-04-03T05:57:22;8.38;;;2.42;;
22250;SDS011;59348;52.158;5.588;2023-04-03T05:59:50;10.20;;;2.40;;
22250;SDS011;59348;52.158;5.588;2023-04-03T06:02:18;5.60;;;1.88;;
22250;SDS011;59348;52.158;5.588;2023-04-03T06:04:46;9.07;;;2.38;;
22250;SDS011;59348;52.158;5.588;2023-04-03T06:07:16;8.38;;;2.30;;
22250;SDS011;59348;52.158;5.588;2023-04-03T06:09:46;8.65;;;2.50;;
22250;SDS011;59348;52.158;5.588;2023-04-03T06:12:14;6.95;;;2.17;;
22250;SDS011;59348;52.158;5.588;2023-04-03T06:14:41;4.95;;;1.98;;
22250;SDS011;59348;52.158;5.588;2023-04-03T06:17:08;8.50;;;2.22;;
22250;SDS011;59348;52.158;5.588;2023-04-03T06:19:37;6.60;;;2.30;;
22250;SDS011;59348;52.158;5.588;2023-04-03T06:22:04;7.97;;;2.50;;
22250;SDS011;59348;52.158;5.588;2023-04-03T06:24:33;7.00;;;2.20;;
22250;SDS011;59348;52.158;5.588;2023-04-03T06:27:00;6.68;;;2.08;;
22250;SDS011;59348;52.158;5.588;2023-04-03T06:29:27;6.18;;;2.38;;
22250;SDS011;59348;52.158;5.588;2023-04-03T06:31:55;7.90;;;2.20;;
22250;SDS011;59348;52.158;5.588;2023-04-03T06:34:22;5.88;;;2.15;;
22250;SDS011;59348;52.158;5.588;2023-04-03T06:36:50;5.43;;;2.20;;
22250;SDS011;59348;52.158;5.588;2023-04-03T06:39:19;7.50;;;2.78;;
22250;SDS011;59348;52.158;5.588;2023-04-03T06:41:48;4.43;;;2.10;;
22250;SDS011;59348;52.158;5.588;2023-04-03T06:44:15;5.97;;;2.75;;
22250;SDS011;59348;52.158;5.588;2023-04-03T06:46:43;5.00;;;2.30;;
22250;SDS011;59348;52.158;5.588;2023-04-03T06:49:11;5.93;;;2.30;;
22250;SDS011;59348;52.158;5.588;2023-04-03T06:51:40;7.47;;;2.38;;
22250;SDS011;59348;52.158;5.588;2023-04-03T06:54:07;6.63;;;2.10;;
22250;SDS011;59348;52.158;5.588;2023-04-03T06:56:35;6.47;;;2.10;;
22250;SDS011;59348;52.158;5.588;2023-04-03T06:59:03;4.45;;;2.00;;
22250;SDS011;59348;52.158;5.588;2023-04-03T07:01:31;5.80;;;2.15;;
22250;SDS011;59348;52.158;5.588;2023-04-03T07:03:58;6.05;;;2.00;;
22250;SDS011;59348;52.158;5.588;2023-04-03T07:06:25;5.85;;;1.83;;
22250;SDS011;59348;52.158;5.588;2023-04-03T07:08:53;3.67;;;1.95;;
22250;SDS011;59348;52.158;5.588;2023-04-03T07:11:20;4.63;;;2.00;;
22250;SDS011;59348;52.158;5.588;2023-04-03T07:13:48;5.22;;;1.85;;
22250;SDS011;59348;52.158;5.588;2023-04-03T07:16:16;5.63;;;1.90;;
22250;SDS011;59348;52.158;5.588;2023-04-03T07:18:44;5.03;;;1.75;;
22250;SDS011;59348;52.158;5.588;2023-04-03T07:21:12;4.75;;;1.90;;
22250;SDS011;59348;52.158;5.588;2023-04-03T07:23:39;6.55;;;1.92;;
22250;SDS011;59348;52.158;5.588;2023-04-03T07:26:06;5.53;;;1.65;;
22250;SDS011;59348;52.158;5.588;2023-04-03T07:28:34;5.05;;;1.95;;
22250;SDS011;59348;52.158;5.588;2023-04-03T07:31:04;6.68;;;1.88;;
22250;SDS011;59348;52.158;5.588;2023-04-03T07:33:35;6.38;;;2.00;;
22250;SDS011;59348;52.158;5.588;2023-04-03T07:36:02;5.43;;;1.85;;
22250;SDS011;59348;52.158;5.588;2023-04-03T07:38:32;8.43;;;2.20;;
22250;SDS011;59348;52.158;5.588;2023-04-03T07:41:00;7.03;;;2.03;;
22250;SDS011;59348;52.158;5.588;2023-04-03T07:43:27;3.67;;;1.85;;
22250;SDS011;59348;52.158;5.588;2023-04-03T07:45:55;5.32;;;1.70;;
22250;SDS011;59348;52.158;5.588;2023-04-03T07:48:23;5.70;;;1.90;;
22250;SDS011;59348;52.158;5.588;2023-04-03T07:50:52;5.90;;;1.75;;
22250;SDS011;59348;52.158;5.588;2023-04-03T07:53:20;3.85;;;1.45;;
22250;SDS011;59348;52.158;5.588;2023-04-03T07:55:47;5.03;;;1.60;;
22250;SDS011;59348;52.158;5.588;2023-04-03T07:58:17;6.35;;;1.70;;
22250;SDS011;59348;52.158;5.588;2023-04-03T08:00:44;3.55;;;1.52;;
22250;SDS011;59348;52.158;5.588;2023-04-03T08:03:12;5.40;;;1.40;;
22250;SDS011;59348;52.158;5.588;2023-04-03T08:05:41;10.02;;;1.80;;
22250;SDS011;59348;52.158;5.588;2023-04-03T08:08:11;3.95;;;1.48;;
22250;SDS011;59348;52.158;5.588;2023-04-03T08:10:38;3.53;;;1.48;;
22250;SDS011;59348;52.158;5.588;2023-04-03T08:13:06;3.67;;;1.70;;
22250;SDS011;59348;52.158;5.588;2023-04-03T08:15:34;2.65;;;1.50;;
22250;SDS011;59348;52.158;5.588;2023-04-03T08:18:02;2.42;;;1.10;;
22250;SDS011;59348;52.158;5.588;2023-04-03T08:20:29;4.55;;;1.50;;
22250;SDS011;59348;52.158;5.588;2023-04-03T08:22:56;2.83;;;1.30;;
22250;SDS011;59348;52.158;5.588;2023-04-03T08:25:25;6.38;;;1.42;;
22250;SDS011;59348;52.158;5.588;2023-04-03T08:27:54;3.00;;;1.40;;
22250;SDS011;59348;52.158;5.588;2023-04-03T08:30:22;3.58;;;1.08;;
22250;SDS011;59348;52.158;5.588;2023-04-03T08:32:49;2.92;;;1.10;;
22250;SDS011;59348;52.158;5.588;2023-04-03T08:35:16;2.40;;;1.17;;
22250;SDS011;59348;52.158;5.588;2023-04-03T08:37:45;2.42;;;0.95;;
22250;SDS011;59348;52.158;5.588;2023-04-03T08:40:13;5.78;;;0.90;;
22250;SDS011;59348;52.158;5.588;2023-04-03T08:42:44;2.47;;;1.00;;
22250;SDS011;59348;52.158;5.588;2023-04-03T08:45:15;3.42;;;0.90;;
22250;SDS011;59348;52.158;5.588;2023-04-03T08:47:45;3.60;;;1.00;;
22250;SDS011;59348;52.158;5.588;2023-04-03T08:50:15;2.17;;;0.75;;
22250;SDS011;59348;52.158;5.588;2023-04-03T08:52:44;4.00;;;1.00;;
22250;SDS011;59348;52.158;5.588;2023-04-03T08:55:16;2.05;;;0.88;;
22250;SDS011;59348;52.158;5.588;2023-04-03T08:57:46;1.10;;;0.70;;
22250;SDS011;59348;52.158;5.588;2023-04-03T09:00:16;1.48;;;0.80;;
22250;SDS011;59348;52.158;5.588;2023-04-03T09:02:44;2.13;;;0.73;;
22250;SDS011;59348;52.158;5.588;2023-04-03T09:05:13;1.10;;;0.60;;
22250;SDS011;59348;52.158;5.588;2023-04-03T09:07:42;1.05;;;0.70;;
22250;SDS011;59348;52.158;5.588;2023-04-03T09:10:11;1.33;;;0.70;;
22250;SDS011;59348;52.158;5.588;2023-04-03T09:12:39;3.08;;;0.75;;
22250;SDS011;59348;52.158;5.588;2023-04-03T09:15:12;0.82;;;0.52;;
22250;SDS011;59348;52.158;5.588;2023-04-03T09:17:45;1.27;;;0.50;;
22250;SDS011;59348;52.158;5.588;2023-04-03T09:20:19;0.88;;;0.60;;
22250;SDS011;59348;52.158;5.588;2023-04-03T09:22:48;2.47;;;0.80;;
22250;SDS011;59348;52.158;5.588;2023-04-03T09:25:18;1.88;;;0.70;;
22250;SDS011;59348;52.158;5.588;2023-04-03T09:27:47;1.27;;;0.50;;
22250;SDS011;59348;52.158;5.588;2023-04-03T09:30:17;1.45;;;0.50;;
22250;SDS011;59348;52.158;5.588;2023-04-03T09:32:45;2.47;;;0.50;;
22250;SDS011;59348;52.158;5.588;2023-04-03T09:35:18;1.65;;;0.47;;
22250;SDS011;59348;52.158;5.588;2023-04-03T09:37:47;1.30;;;0.60;;
22250;SDS011;59348;52.158;5.588;2023-04-03T09:42:59;2.13;;;0.50;;
22250;SDS011;59348;52.158;5.588;2023-04-03T09:45:30;1.35;;;0.50;;
22250;SDS011;59348;52.158;5.588;2023-04-03T09:48:06;1.52;;;0.38;;
22250;SDS011;59348;52.158;5.588;2023-04-03T09:50:34;1.33;;;0.50;;
22250;SDS011;59348;52.158;5.588;2023-04-03T09:53:04;1.15;;;0.50;;
22250;SDS011;59348;52.158;5.588;2023-04-03T09:55:33;1.83;;;0.40;;
22250;SDS011;59348;52.158;5.588;2023-04-03T09:58:22;1.38;;;0.60;;
22250;SDS011;59348;52.158;5.588;2023-04-03T10:00:55;1.00;;;0.50;;
22250;SDS011;59348;52.158;5.588;2023-04-03T10:03:24;0.75;;;0.50;;
22250;SDS011;59348;52.158;5.588;2023-04-03T10:05:51;1.02;;;0.35;;
22250;SDS011;59348;52.158;5.588;2023-04-03T10:08:21;0.50;;;0.30;;
22250;SDS011;59348;52.158;5.588;2023-04-03T10:11:05;0.68;;;0.45;;
22250;SDS011;59348;52.158;5.588;2023-04-03T10:13:32;1.55;;;0.40;;
22250;SDS011;59348;52.158;5.588;2023-04-03T10:16:03;1.88;;;0.50;;
22250;SDS011;59348;52.158;5.588;2023-04-03T10:18:32;3.28;;;0.50;;
22250;SDS011;59348;52.158;5.588;2023-04-03T10:21:03;0.80;;;0.50;;
22250;SDS011;59348;52.158;5.588;2023-04-03T10:23:35;2.38;;;0.50;;
22250;SDS011;59348;52.158;5.588;2023-04-03T10:26:08;1.80;;;0.60;;
22250;SDS011;59348;52.158;5.588;2023-04-03T10:28:40;1.00;;;0.50;;
22250;SDS011;59348;52.158;5.588;2023-04-03T10:31:13;0.82;;;0.43;;
22250;SDS011;59348;52.158;5.588;2023-04-03T10:33:45;0.93;;;0.60;;
22250;SDS011;59348;52.158;5.588;2023-04-03T10:36:17;0.85;;;0.50;;
22250;SDS011;59348;52.158;5.588;2023-04-03T10:38:50;0.93;;;0.60;;
22250;SDS011;59348;52.158;5.588;2023-04-03T10:41:21;1.35;;;0.55;;
22250;SDS011;59348;52.158;5.588;2023-04-03T10:43:54;1.75;;;0.70;;
22250;SDS011;59348;52.158;5.588;2023-04-03T10:46:26;1.02;;;0.68;;
22250;SDS011;59348;52.158;5.588;2023-04-03T10:49:00;1.30;;;0.68;;
22250;SDS011;59348;52.158;5.588;2023-04-03T10:51:29;2.60;;;0.80;;
22250;SDS011;59348;52.158;5.588;2023-04-03T10:54:00;1.50;;;0.68;;
22250;SDS011;59348;52.158;5.588;2023-04-03T10:56:35;1.42;;;0.75;;
22250;SDS011;59348;52.158;5.588;2023-04-03T10:59:07;2.08;;;0.65;;
22250;SDS011;59348;52.158;5.588;2023-04-03T11:01:42;2.70;;;0.80;;
22250;SDS011;59348;52.158;5.588;2023-04-03T11:04:11;1.27;;;0.50;;
22250;SDS011;59348;52.158;5.588;2023-04-03T11:06:39;2.15;;;0.90;;
22250;SDS011;59348;52.158;5.588;2023-04-03T11:09:11;1.95;;;0.60;;
22250;SDS011;59348;52.158;5.588;2023-04-03T11:11:42;1.90;;;0.70;;
22250;SDS011;59348;52.158;5.588;2023-04-03T11:14:11;3.17;;;0.75;;
22250;SDS011;59348;52.158;5.588;2023-04-03T11:16:43;3.67;;;0.80;;
22250;SDS011;59348;52.158;5.588;2023-04-03T11:19:14;2.55;;;0.80;;
22250;SDS011;59348;52.158;5.588;2023-04-03T11:21:47;1.27;;;0.60;;
22250;SDS011;59348;52.158;5.588;2023-04-03T11:24:17;2.35;;;0.80;;
22250;SDS011;59348;52.158;5.588;2023-04-03T11:26:47;0.98;;;0.70;;
22250;SDS011;59348;52.158;5.588;2023-04-03T11:29:17;1.40;;;0.80;;
22250;SDS011;59348;52.158;5.588;2023-04-03T11:31:52;3.83;;;0.80;;
22250;SDS011;59348;52.158;5.588;2023-04-03T11:34:26;0.95;;;0.70;;
22250;SDS011;59348;52.158;5.588;2023-04-03T11:36:59;1.77;;;0.80;;
22250;SDS011;59348;52.158;5.588;2023-04-03T11:39:28;2.90;;;0.90;;
22250;SDS011;59348;52.158;5.588;2023-04-03T11:44:39;1.73;;;0.80;;
22250;SDS011;59348;52.158;5.588;2023-04-03T11:47:08;1.38;;;0.60;;
22250;SDS011;59348;52.158;5.588;2023-04-03T11:55:00;1.00;;;0.60;;
22250;SDS011;59348;52.158;5.588;2023-04-03T12:02:54;1.70;;;0.60;;
22250;SDS011;59348;52.158;5.588;2023-04-03T12:05:25;3.70;;;0.90;;
22250;SDS011;59348;52.158;5.588;2023-04-03T12:10:34;2.47;;;0.80;;
22250;SDS011;59348;52.158;5.588;2023-04-03T12:13:12;3.50;;;0.90;;
22250;SDS011;59348;52.158;5.588;2023-04-03T12:15:49;1.02;;;0.80;;
22250;SDS011;59348;52.158;5.588;2023-04-03T12:21:00;4.45;;;1.00;;
22250;SDS011;59348;52.158;5.588;2023-04-03T12:23:29;2.25;;;1.00;;
22250;SDS011;59348;52.158;5.588;2023-04-03T12:26:05;1.30;;;0.73;;
22250;SDS011;59348;52.158;5.588;2023-04-03T12:28:37;1.60;;;0.80;;
22250;SDS011;59348;52.158;5.588;2023-04-03T12:31:05;2.30;;;0.73;;
22250;SDS011;59348;52.158;5.588;2023-04-03T12:33:38;2.35;;;0.80;;
22250;SDS011;59348;52.158;5.588;2023-04-03T12:36:11;1.42;;;0.90;;
22250;SDS011;59348;52.158;5.588;2023-04-03T12:38:41;4.50;;;0.98;;
22250;SDS011;59348;52.158;5.588;2023-04-03T12:41:18;1.52;;;0.80;;
22250;SDS011;59348;52.158;5.588;2023-04-03T12:43:50;1.60;;;0.90;;
22250;SDS011;59348;52.158;5.588;2023-04-03T12:46:23;2.00;;;1.00;;
22250;SDS011;59348;52.158;5.588;2023-04-03T12:48:51;3.10;;;0.90;;
22250;SDS011;59348;52.158;5.588;2023-04-03T12:51:22;2.83;;;1.10;;
22250;SDS011;59348;52.158;5.588;2023-04-03T12:53:52;1.30;;;0.90;;
22250;SDS011;59348;52.158;5.588;2023-04-03T12:56:23;1.75;;;1.00;;
22250;SDS011;59348;52.158;5.588;2023-04-03T12:58:51;3.08;;;1.00;;
22250;SDS011;59348;52.158;5.588;2023-04-03T13:01:20;2.08;;;1.00;;
22250;SDS011;59348;52.158;5.588;2023-04-03T13:03:49;1.58;;;1.02;;
22250;SDS011;59348;52.158;5.588;2023-04-03T13:06:17;1.73;;;1.00;;
22250;SDS011;59348;52.158;5.588;2023-04-03T13:08:50;3.85;;;1.20;;
22250;SDS011;59348;52.158;5.588;2023-04-03T13:11:18;3.85;;;0.80;;
22250;SDS011;59348;52.158;5.588;2023-04-03T13:13:55;1.48;;;0.90;;
22250;SDS011;59348;52.158;5.588;2023-04-03T13:16:22;2.72;;;0.95;;
22250;SDS011;59348;52.158;5.588;2023-04-03T13:18:50;1.00;;;0.80;;
22250;SDS011;59348;52.158;5.588;2023-04-03T13:21:18;2.33;;;1.17;;
22250;SDS011;59348;52.158;5.588;2023-04-03T13:23:47;2.97;;;0.90;;
22250;SDS011;59348;52.158;5.588;2023-04-03T13:26:17;2.13;;;0.95;;
22250;SDS011;59348;52.158;5.588;2023-04-03T13:28:45;2.75;;;0.90;;
22250;SDS011;59348;52.158;5.588;2023-04-03T13:31:18;1.92;;;0.93;;
22250;SDS011;59348;52.158;5.588;2023-04-03T13:33:52;1.98;;;0.93;;
22250;SDS011;59348;52.158;5.588;2023-04-03T13:36:21;4.30;;;0.95;;
22250;SDS011;59348;52.158;5.588;2023-04-03T13:38:57;2.53;;;0.95;;
22250;SDS011;59348;52.158;5.588;2023-04-03T13:41:27;2.67;;;1.23;;
22250;SDS011;59348;52.158;5.588;2023-04-03T13:43:55;3.10;;;1.20;;
22250;SDS011;59348;52.158;5.588;2023-04-03T13:46:24;2.50;;;1.00;;
22250;SDS011;59348;52.158;5.588;2023-04-03T13:48:52;3.78;;;1.10;;
22250;SDS011;59348;52.158;5.588;2023-04-03T13:51:21;1.00;;;0.90;;
22250;SDS011;59348;52.158;5.588;2023-04-03T13:53:50;3.22;;;1.30;;
22250;SDS011;59348;52.158;5.588;2023-04-03T13:56:19;4.13;;;1.10;;
22250;SDS011;59348;52.158;5.588;2023-04-03T13:58:57;2.13;;;1.00;;
22250;SDS011;59348;52.158;5.588;2023-04-03T14:01:32;3.22;;;1.13;;
22250;SDS011;59348;52.158;5.588;2023-04-03T14:04:01;2.15;;;1.00;;
22250;SDS011;59348;52.158;5.588;2023-04-03T14:06:28;4.35;;;1.15;;
22250;SDS011;59348;52.158;5.588;2023-04-03T14:08:55;2.60;;;1.20;;
22250;SDS011;59348;52.158;5.588;2023-04-03T14:11:24;6.07;;;1.30;;
22250;SDS011;59348;52.158;5.588;2023-04-03T14:13:52;3.20;;;0.90;;
22250;SDS011;59348;52.158;5.588;2023-04-03T14:16:22;2.22;;;1.00;;
22250;SDS011;59348;52.158;5.588;2023-04-03T14:18:50;2.60;;;1.10;;
22250;SDS011;59348;52.158;5.588;2023-04-03T14:21:18;2.35;;;1.27;;
22250;SDS011;59348;52.158;5.588;2023-04-03T14:23:46;1.85;;;1.20;;
22250;SDS011;59348;52.158;5.588;2023-04-03T14:26:14;3.70;;;1.30;;
22250;SDS011;59348;52.158;5.588;2023-04-03T14:28:43;4.53;;;1.45;;
22250;SDS011;59348;52.158;5.588;2023-04-03T14:31:10;4.03;;;1.45;;
22250;SDS011;59348;52.158;5.588;2023-04-03T14:33:39;4.03;;;1.55;;
22250;SDS011;59348;52.158;5.588;2023-04-03T14:36:10;3.67;;;1.50;;
22250;SDS011;59348;52.158;5.588;2023-04-03T14:38:38;7.13;;;1.50;;
22250;SDS011;59348;52.158;5.588;2023-04-03T14:41:06;4.75;;;1.73;;
22250;SDS011;59348;52.158;5.588;2023-04-03T14:43:33;2.17;;;1.40;;
22250;SDS011;59348;52.158;5.588;2023-04-03T14:46:01;2.83;;;1.13;;
22250;SDS011;59348;52.158;5.588;2023-04-03T14:48:28;6.68;;;1.48;;
22250;SDS011;59348;52.158;5.588;2023-04-03T14:50:58;2.42;;;1.40;;
22250;SDS011;59348;52.158;5.588;2023-04-03T14:53:25;5.07;;;1.40;;
22250;SDS011;59348;52.158;5.588;2023-04-03T14:55:54;2.47;;;1.30;;
22250;SDS011;59348;52.158;5.588;2023-04-03T14:58:22;3.08;;;1.40;;
22250;SDS011;59348;52.158;5.588;2023-04-03T15:00:49;3.78;;;1.45;;
22250;SDS011;59348;52.158;5.588;2023-04-03T15:03:17;4.10;;;1.50;;
22250;SDS011;59348;52.158;5.588;2023-04-03T15:05:45;4.00;;;1.33;;
22250;SDS011;59348;52.158;5.588;2023-04-03T15:08:22;3.15;;;1.20;;
22250;SDS011;59348;52.158;5.588;2023-04-03T15:10:50;2.20;;;1.30;;
22250;SDS011;59348;52.158;5.588;2023-04-03T15:13:20;2.55;;;1.38;;
22250;SDS011;59348;52.158;5.588;2023-04-03T15:15:48;3.88;;;1.40;;
22250;SDS011;59348;52.158;5.588;2023-04-03T15:18:17;3.67;;;1.70;;
22250;SDS011;59348;52.158;5.588;2023-04-03T15:20:45;4.10;;;1.55;;
22250;SDS011;59348;52.158;5.588;2023-04-03T15:23:13;4.18;;;1.67;;